sensor_id;sensor_type;location;lat;lon;timestamp;pressure;altitude;pressure_sealevel;temperature;humidity
15670;BME280;18524;45.190;5.732;2023-07-29T00:04:42;98830.72;;;25.52;88.85
15670;BME280;18524;45.190;5.732;2023-07-29T00:09:33;98825.94;;;25.54;90.16
15670;BME280;18524;45.190;5.732;2023-07-29T00:14:23;98817.06;;;25.54;85.85
15670;BME280;18524;45.190;5.732;2023-07-29T00:19:14;98838.09;;;25.57;84.40
15670;BME280;18524;45.190;5.732;2023-07-29T00:24:04;98848.00;;;25.56;82.41
15670;BME280;18524;45.190;5.732;2023-07-29T00:28:55;98852.56;;;25.56;82.54
15670;BME280;18524;45.190;5.732;2023-07-29T00:33:46;98843.56;;;25.50;81.35
15670;BME280;18524;45.190;5.732;2023-07-29T00:38:36;98855.13;;;25.51;82.80
15670;BME280;18524;45.190;5.732;2023-07-29T00:43:26;98856.41;;;25.48;85.87
15670;BME280;18524;45.190;5.732;2023-07-29T00:48:17;98853.34;;;25.45;89.44
15670;BME280;18524;45.190;5.732;2023-07-29T00:53:08;98842.91;;;25.37;92.46
15670;BME280;18524;45.190;5.732;2023-07-29T00:57:58;98848.38;;;25.30;92.41
15670;BME280;18524;45.190;5.732;2023-07-29T01:02:49;98859.16;;;25.23;92.47
15670;BME280;18524;45.190;5.732;2023-07-29T01:08:09;98851.44;;;25.15;91.60
15670;BME280;18524;45.190;5.732;2023-07-29T01:13:25;98862.16;;;25.15;91.43
15670;BME280;18524;45.190;5.732;2023-07-29T01:18:22;98849.78;;;25.14;92.21
15670;BME280;18524;45.190;5.732;2023-07-29T01:23:13;98862.63;;;25.12;93.02
15670;BME280;18524;45.190;5.732;2023-07-29T01:28:03;98854.41;;;25.07;92.57
15670;BME280;18524;45.190;5.732;2023-07-29T01:38:21;98854.00;;;24.85;92.94
15670;BME280;18524;45.190;5.732;2023-07-29T01:43:14;98864.22;;;24.77;93.33
15670;BME280;18524;45.190;5.732;2023-07-29T01:48:05;98854.59;;;24.87;95.25
15670;BME280;18524;45.190;5.732;2023-07-29T01:52:56;98867.19;;;24.87;94.53
15670;BME280;18524;45.190;5.732;2023-07-29T01:57:46;98857.94;;;24.83;91.19
15670;BME280;18524;45.190;5.732;2023-07-29T02:02:37;98850.28;;;24.86;87.93
15670;BME280;18524;45.190;5.732;2023-07-29T02:07:27;98845.81;;;24.80;85.14
15670;BME280;18524;45.190;5.732;2023-07-29T02:12:18;98848.47;;;24.80;85.16
15670;BME280;18524;45.190;5.732;2023-07-29T02:17:08;98857.81;;;24.78;83.48
15670;BME280;18524;45.190;5.732;2023-07-29T02:21:59;98859.13;;;24.69;83.08
15670;BME280;18524;45.190;5.732;2023-07-29T02:26:49;98851.09;;;24.69;83.04
15670;BME280;18524;45.190;5.732;2023-07-29T02:31:39;98851.97;;;24.62;81.20
15670;BME280;18524;45.190;5.732;2023-07-29T02:36:30;98857.44;;;24.74;84.31
15670;BME280;18524;45.190;5.732;2023-07-29T02:41:20;98853.03;;;24.61;82.56
15670;BME280;18524;45.190;5.732;2023-07-29T02:46:10;98854.06;;;24.60;82.23
15670;BME280;18524;45.190;5.732;2023-07-29T02:51:01;98860.69;;;24.58;82.99
15670;BME280;18524;45.190;5.732;2023-07-29T02:55:51;98863.00;;;24.54;82.35
15670;BME280;18524;45.190;5.732;2023-07-29T03:00:42;98854.81;;;24.43;87.77
15670;BME280;18524;45.190;5.732;2023-07-29T03:05:33;98855.94;;;24.35;93.84
15670;BME280;18524;45.190;5.732;2023-07-29T03:10:24;98872.91;;;24.29;99.87
15670;BME280;18524;45.190;5.732;2023-07-29T03:15:14;98864.09;;;24.15;100.00
15670;BME280;18524;45.190;5.732;2023-07-29T03:20:05;98861.28;;;24.04;100.00
15670;BME280;18524;45.190;5.732;2023-07-29T03:24:56;98869.22;;;23.92;100.00
15670;BME280;18524;45.190;5.732;2023-07-29T03:29:46;98868.22;;;23.86;100.00
15670;BME280;18524;45.190;5.732;2023-07-29T03:34:36;98860.50;;;23.65;100.00
15670;BME280;18524;45.190;5.732;2023-07-29T03:39:27;98865.09;;;23.58;100.00
15670;BME280;18524;45.190;5.732;2023-07-29T03:44:17;98875.84;;;23.45;100.00
15670;BME280;18524;45.190;5.732;2023-07-29T03:49:08;98865.91;;;23.52;100.00
15670;BME280;18524;45.190;5.732;2023-07-29T03:53:58;98865.84;;;23.20;100.00
15670;BME280;18524;45.190;5.732;2023-07-29T03:58:49;98867.28;;;23.16;100.00
15670;BME280;18524;45.190;5.732;2023-07-29T04:03:39;98856.63;;;23.03;100.00
15670;BME280;18524;45.190;5.732;2023-07-29T04:08:30;98859.31;;;22.96;100.00
15670;BME280;18524;45.190;5.732;2023-07-29T04:13:20;98860.97;;;22.91;100.00
15670;BME280;18524;45.190;5.732;2023-07-29T04:18:10;98864.91;;;22.82;100.00
15670;BME280;18524;45.190;5.732;2023-07-29T04:23:01;98870.03;;;22.76;100.00
15670;BME280;18524;45.190;5.732;2023-07-29T04:27:51;98864.50;;;22.71;100.00
15670;BME280;18524;45.190;5.732;2023-07-29T04:32:42;98875.81;;;22.73;100.00
15670;BME280;18524;45.190;5.732;2023-07-29T04:37:32;98875.38;;;22.63;100.00
15670;BME280;18524;45.190;5.732;2023-07-29T04:42:22;98868.63;;;22.67;100.00
15670;BME280;18524;45.190;5.732;2023-07-29T04:47:13;98875.19;;;22.85;100.00
15670;BME280;18524;45.190;5.732;2023-07-29T04:52:03;98861.63;;;22.86;100.00
15670;BME280;18524;45.190;5.732;2023-07-29T04:56:54;98864.69;;;22.90;100.00
15670;BME280;18524;45.190;5.732;2023-07-29T05:01:44;98872.47;;;23.11;100.00
15670;BME280;18524;45.190;5.732;2023-07-29T05:06:34;98873.00;;;23.26;100.00
15670;BME280;18524;45.190;5.732;2023-07-29T05:11:25;98873.66;;;23.22;100.00
15670;BME280;18524;45.190;5.732;2023-07-29T05:16:15;98882.63;;;23.40;100.00
15670;BME280;18524;45.190;5.732;2023-07-29T05:21:05;98882.56;;;23.60;100.00
15670;BME280;18524;45.190;5.732;2023-07-29T05:25:57;98878.91;;;23.93;100.00
15670;BME280;18524;45.190;5.732;2023-07-29T05:30:47;98879.00;;;24.05;100.00
15670;BME280;18524;45.190;5.732;2023-07-29T05:35:38;98873.00;;;24.66;100.00
15670;BME280;18524;45.190;5.732;2023-07-29T05:40:28;98874.31;;;25.00;97.12
15670;BME280;18524;45.190;5.732;2023-07-29T05:45:18;98864.41;;;25.18;93.82
15670;BME280;18524;45.190;5.732;2023-07-29T05:50:09;98866.03;;;25.38;91.77
15670;BME280;18524;45.190;5.732;2023-07-29T05:54:59;98867.34;;;25.47;89.63
15670;BME280;18524;45.190;5.732;2023-07-29T05:59:50;98863.91;;;25.58;88.30
15670;BME280;18524;45.190;5.732;2023-07-29T06:04:40;98868.22;;;25.59;87.79
15670;BME280;18524;45.190;5.732;2023-07-29T06:09:31;98865.06;;;26.22;83.30
15670;BME280;18524;45.190;5.732;2023-07-29T06:14:21;98870.50;;;26.57;81.82
15670;BME280;18524;45.190;5.732;2023-07-29T06:19:11;98867.81;;;26.45;80.84
15670;BME280;18524;45.190;5.732;2023-07-29T06:24:03;98861.28;;;26.65;79.12
15670;BME280;18524;45.190;5.732;2023-07-29T06:28:53;98857.66;;;26.59;78.88
15670;BME280;18524;45.190;5.732;2023-07-29T06:33:44;98853.63;;;26.97;76.27
15670;BME280;18524;45.190;5.732;2023-07-29T06:38:34;98853.69;;;27.37;74.34
15670;BME280;18524;45.190;5.732;2023-07-29T06:43:24;98856.69;;;27.81;71.96
15670;BME280;18524;45.190;5.732;2023-07-29T06:48:15;98863.47;;;27.66;71.41
15670;BME280;18524;45.190;5.732;2023-07-29T06:53:06;98857.38;;;28.33;65.60
15670;BME280;18524;45.190;5.732;2023-07-29T06:57:56;98859.22;;;28.49;64.93
15670;BME280;18524;45.190;5.732;2023-07-29T07:02:46;98865.41;;;29.00;63.47
15670;BME280;18524;45.190;5.732;2023-07-29T07:07:37;98871.50;;;29.56;61.74
15670;BME280;18524;45.190;5.732;2023-07-29T07:12:28;98868.44;;;30.01;59.63
15670;BME280;18524;45.190;5.732;2023-07-29T07:17:18;98858.22;;;30.35;58.28
15670;BME280;18524;45.190;5.732;2023-07-29T07:22:08;98845.63;;;30.51;57.41
15670;BME280;18524;45.190;5.732;2023-07-29T07:26:59;98865.47;;;31.04;55.30
15670;BME280;18524;45.190;5.732;2023-07-29T07:31:51;98876.44;;;31.24;52.73
15670;BME280;18524;45.190;5.732;2023-07-29T07:36:45;98870.56;;;31.58;52.46
15670;BME280;18524;45.190;5.732;2023-07-29T07:41:35;98870.16;;;32.12;50.52
15670;BME280;18524;45.190;5.732;2023-07-29T07:46:25;98874.25;;;32.14;49.30
15670;BME280;18524;45.190;5.732;2023-07-29T07:51:16;98875.13;;;31.32;51.19
15670;BME280;18524;45.190;5.732;2023-07-29T07:56:06;98868.22;;;30.35;54.23
15670;BME280;18524;45.190;5.732;2023-07-29T08:01:07;98862.66;;;30.14;55.61
15670;BME280;18524;45.190;5.732;2023-07-29T08:05:58;98866.53;;;31.03;52.66
15670;BME280;18524;45.190;5.732;2023-07-29T08:10:49;98863.50;;;30.89;51.99
15670;BME280;18524;45.190;5.732;2023-07-29T08:15:39;98871.28;;;31.23;52.19
15670;BME280;18524;45.190;5.732;2023-07-29T08:20:31;98876.25;;;31.46;49.40
15670;BME280;18524;45.190;5.732;2023-07-29T08:25:22;98875.41;;;31.35;48.93
15670;BME280;18524;45.190;5.732;2023-07-29T08:30:13;98880.44;;;31.94;48.41
15670;BME280;18524;45.190;5.732;2023-07-29T08:35:04;98871.22;;;31.75;46.28
15670;BME280;18524;45.190;5.732;2023-07-29T08:39:55;98885.69;;;31.38;47.05
15670;BME280;18524;45.190;5.732;2023-07-29T08:44:48;98870.66;;;31.78;48.04
15670;BME280;18524;45.190;5.732;2023-07-29T08:49:39;98870.16;;;32.07;46.33
15670;BME280;18524;45.190;5.732;2023-07-29T08:54:30;98876.91;;;31.79;46.35
15670;BME280;18524;45.190;5.732;2023-07-29T08:59:21;98869.59;;;31.89;47.06
15670;BME280;18524;45.190;5.732;2023-07-29T09:04:11;98865.28;;;32.03;45.80
15670;BME280;18524;45.190;5.732;2023-07-29T09:09:02;98867.19;;;32.54;45.38
15670;BME280;18524;45.190;5.732;2023-07-29T09:13:52;98852.22;;;32.77;44.56
15670;BME280;18524;45.190;5.732;2023-07-29T09:18:43;98849.41;;;33.17;44.32
15670;BME280;18524;45.190;5.732;2023-07-29T09:23:40;98860.91;;;33.64;43.13
15670;BME280;18524;45.190;5.732;2023-07-29T09:28:36;98855.63;;;33.88;40.56
15670;BME280;18524;45.190;5.732;2023-07-29T09:33:27;98847.63;;;34.01;40.74
15670;BME280;18524;45.190;5.732;2023-07-29T09:38:17;98837.50;;;34.07;40.51
15670;BME280;18524;45.190;5.732;2023-07-29T09:43:09;98828.09;;;34.57;39.79
15670;BME280;18524;45.190;5.732;2023-07-29T09:48:00;98829.34;;;34.94;38.24
15670;BME280;18524;45.190;5.732;2023-07-29T09:52:51;98826.97;;;35.35;37.22
15670;BME280;18524;45.190;5.732;2023-07-29T09:57:42;98828.34;;;35.32;36.81
15670;BME280;18524;45.190;5.732;2023-07-29T10:02:33;98826.38;;;35.76;36.50
15670;BME280;18524;45.190;5.732;2023-07-29T10:07:24;98819.19;;;35.98;36.62
15670;BME280;18524;45.190;5.732;2023-07-29T10:12:15;98797.59;;;36.35;35.81
15670;BME280;18524;45.190;5.732;2023-07-29T10:17:05;98802.13;;;36.39;35.86
15670;BME280;18524;45.190;5.732;2023-07-29T10:21:59;98796.22;;;36.78;35.49
15670;BME280;18524;45.190;5.732;2023-07-29T10:26:50;98788.03;;;36.92;35.97
15670;BME280;18524;45.190;5.732;2023-07-29T10:31:43;98776.44;;;37.22;36.07
15670;BME280;18524;45.190;5.732;2023-07-29T10:36:33;98775.19;;;37.42;33.74
15670;BME280;18524;45.190;5.732;2023-07-29T10:41:59;98766.16;;;37.55;33.37
15670;BME280;18524;45.190;5.732;2023-07-29T10:46:50;98769.69;;;37.56;33.48
15670;BME280;18524;45.190;5.732;2023-07-29T10:51:40;98762.03;;;37.89;33.15
15670;BME280;18524;45.190;5.732;2023-07-29T10:56:33;98750.41;;;37.83;32.39
15670;BME280;18524;45.190;5.732;2023-07-29T11:01:30;98747.84;;;37.42;33.14
15670;BME280;18524;45.190;5.732;2023-07-29T11:06:22;98749.13;;;36.68;34.00
15670;BME280;18524;45.190;5.732;2023-07-29T11:11:12;98742.13;;;35.88;34.96
15670;BME280;18524;45.190;5.732;2023-07-29T11:16:04;98746.28;;;35.48;35.66
15670;BME280;18524;45.190;5.732;2023-07-29T11:20:55;98741.63;;;35.29;36.07
15670;BME280;18524;45.190;5.732;2023-07-29T11:25:46;98750.06;;;34.90;37.34
15670;BME280;18524;45.190;5.732;2023-07-29T11:30:39;98737.91;;;34.59;37.64
15670;BME280;18524;45.190;5.732;2023-07-29T11:35:29;98741.88;;;34.42;38.55
15670;BME280;18524;45.190;5.732;2023-07-29T11:40:21;98732.19;;;34.31;39.08
15670;BME280;18524;45.190;5.732;2023-07-29T11:45:13;98727.56;;;34.03;39.89
15670;BME280;18524;45.190;5.732;2023-07-29T11:50:05;98743.13;;;33.63;41.51
15670;BME280;18524;45.190;5.732;2023-07-29T11:54:56;98731.47;;;33.58;42.75
15670;BME280;18524;45.190;5.732;2023-07-29T11:59:47;98727.13;;;33.56;42.84
15670;BME280;18524;45.190;5.732;2023-07-29T12:04:39;98731.66;;;34.00;41.96
15670;BME280;18524;45.190;5.732;2023-07-29T12:09:30;98732.75;;;34.57;40.33
15670;BME280;18524;45.190;5.732;2023-07-29T12:14:20;98731.88;;;34.38;39.49
15670;BME280;18524;45.190;5.732;2023-07-29T12:19:15;98730.06;;;33.99;39.82
15670;BME280;18524;45.190;5.732;2023-07-29T12:24:05;98727.38;;;33.60;40.29
15670;BME280;18524;45.190;5.732;2023-07-29T12:28:56;98728.03;;;33.42;41.72
15670;BME280;18524;45.190;5.732;2023-07-29T12:33:55;98723.44;;;33.71;39.46
15670;BME280;18524;45.190;5.732;2023-07-29T12:38:46;98725.94;;;34.55;36.90
15670;BME280;18524;45.190;5.732;2023-07-29T12:43:36;98719.09;;;34.81;36.75
15670;BME280;18524;45.190;5.732;2023-07-29T12:48:27;98714.88;;;35.13;36.48
15670;BME280;18524;45.190;5.732;2023-07-29T12:53:18;98704.31;;;35.25;36.46
15670;BME280;18524;45.190;5.732;2023-07-29T12:58:08;98697.47;;;35.08;36.59
15670;BME280;18524;45.190;5.732;2023-07-29T13:02:59;98702.69;;;34.86;36.14
15670;BME280;18524;45.190;5.732;2023-07-29T13:07:49;98685.59;;;34.33;39.07
15670;BME280;18524;45.190;5.732;2023-07-29T13:12:40;98682.28;;;34.12;38.73
15670;BME280;18524;45.190;5.732;2023-07-29T13:17:30;98694.53;;;33.80;39.75
15670;BME280;18524;45.190;5.732;2023-07-29T13:22:21;98679.72;;;33.97;39.61
15670;BME280;18524;45.190;5.732;2023-07-29T13:27:11;98683.13;;;33.49;41.62
15670;BME280;18524;45.190;5.732;2023-07-29T13:32:02;98678.69;;;32.65;43.82
15670;BME280;18524;45.190;5.732;2023-07-29T13:36:52;98675.03;;;32.15;45.54
15670;BME280;18524;45.190;5.732;2023-07-29T13:41:43;98672.94;;;31.77;47.36
15670;BME280;18524;45.190;5.732;2023-07-29T13:46:33;98681.06;;;31.97;47.06
15670;BME280;18524;45.190;5.732;2023-07-29T13:51:24;98682.94;;;32.01;47.35
15670;BME280;18524;45.190;5.732;2023-07-29T13:56:14;98669.59;;;32.15;47.02
15670;BME280;18524;45.190;5.732;2023-07-29T14:01:04;98683.66;;;32.48;46.36
15670;BME280;18524;45.190;5.732;2023-07-29T14:05:55;98672.97;;;32.72;45.17
15670;BME280;18524;45.190;5.732;2023-07-29T14:10:45;98672.34;;;32.90;42.72
15670;BME280;18524;45.190;5.732;2023-07-29T14:15:36;98665.72;;;32.52;43.99
15670;BME280;18524;45.190;5.732;2023-07-29T14:20:26;98662.94;;;32.62;43.78
15670;BME280;18524;45.190;5.732;2023-07-29T14:25:17;98668.78;;;32.35;43.80
15670;BME280;18524;45.190;5.732;2023-07-29T14:30:07;98685.34;;;32.18;44.53
15670;BME280;18524;45.190;5.732;2023-07-29T14:34:58;98682.69;;;31.78;46.00
15670;BME280;18524;45.190;5.732;2023-07-29T14:39:53;98689.19;;;31.46;47.45
15670;BME280;18524;45.190;5.732;2023-07-29T14:44:43;98685.13;;;31.44;48.18
15670;BME280;18524;45.190;5.732;2023-07-29T14:49:34;98671.00;;;31.57;47.29
15670;BME280;18524;45.190;5.732;2023-07-29T14:54:24;98668.06;;;31.74;46.50
15670;BME280;18524;45.190;5.732;2023-07-29T14:59:14;98681.06;;;31.61;46.90
15670;BME280;18524;45.190;5.732;2023-07-29T15:04:05;98680.22;;;31.56;47.28
15670;BME280;18524;45.190;5.732;2023-07-29T15:08:55;98667.78;;;31.29;47.79
15670;BME280;18524;45.190;5.732;2023-07-29T15:13:46;98674.75;;;31.00;49.33
15670;BME280;18524;45.190;5.732;2023-07-29T15:18:36;98662.88;;;31.16;49.33
15670;BME280;18524;45.190;5.732;2023-07-29T15:23:27;98652.25;;;30.89;50.41
15670;BME280;18524;45.190;5.732;2023-07-29T15:28:17;98656.50;;;30.65;51.57
15670;BME280;18524;45.190;5.732;2023-07-29T15:33:08;98651.81;;;30.50;52.47
15670;BME280;18524;45.190;5.732;2023-07-29T15:37:58;98651.72;;;30.30;53.17
15670;BME280;18524;45.190;5.732;2023-07-29T15:42:48;98650.78;;;30.09;54.15
15670;BME280;18524;45.190;5.732;2023-07-29T15:47:39;98637.88;;;29.74;55.39
15670;BME280;18524;45.190;5.732;2023-07-29T15:52:29;98626.25;;;29.41;56.99
15670;BME280;18524;45.190;5.732;2023-07-29T15:57:19;98621.13;;;29.13;58.25
15670;BME280;18524;45.190;5.732;2023-07-29T16:02:10;98637.25;;;29.03;59.27
15670;BME280;18524;45.190;5.732;2023-07-29T16:07:00;98619.16;;;29.03;58.85
15670;BME280;18524;45.190;5.732;2023-07-29T16:11:50;98651.19;;;28.94;59.42
15670;BME280;18524;45.190;5.732;2023-07-29T16:16:41;98638.31;;;29.02;59.50
15670;BME280;18524;45.190;5.732;2023-07-29T16:21:32;98612.25;;;28.90;59.73
15670;BME280;18524;45.190;5.732;2023-07-29T16:26:23;98632.19;;;28.84;60.29
15670;BME280;18524;45.190;5.732;2023-07-29T16:31:14;98667.91;;;28.70;62.11
15670;BME280;18524;45.190;5.732;2023-07-29T16:36:05;98673.31;;;28.70;65.30
15670;BME280;18524;45.190;5.732;2023-07-29T16:40:55;98687.91;;;28.52;70.57
15670;BME280;18524;45.190;5.732;2023-07-29T16:45:46;98714.97;;;28.57;74.89
15670;BME280;18524;45.190;5.732;2023-07-29T16:50:36;98750.53;;;28.54;80.19
15670;BME280;18524;45.190;5.732;2023-07-29T16:55:27;98753.22;;;28.32;74.17
15670;BME280;18524;45.190;5.732;2023-07-29T17:00:17;98730.09;;;28.02;77.24
15670;BME280;18524;45.190;5.732;2023-07-29T17:05:08;98755.13;;;27.53;81.08
15670;BME280;18524;45.190;5.732;2023-07-29T17:09:58;98787.41;;;27.36;78.97
15670;BME280;18524;45.190;5.732;2023-07-29T17:14:49;98806.72;;;27.04;78.42
15670;BME280;18524;45.190;5.732;2023-07-29T17:19:39;98775.72;;;26.90;82.15
15670;BME280;18524;45.190;5.732;2023-07-29T17:24:30;98773.31;;;26.54;89.35
15670;BME280;18524;45.190;5.732;2023-07-29T17:29:20;98748.97;;;25.78;96.70
15670;BME280;18524;45.190;5.732;2023-07-29T17:34:11;98765.44;;;25.22;100.00
15670;BME280;18524;45.190;5.732;2023-07-29T17:39:01;98774.53;;;25.21;100.00
15670;BME280;18524;45.190;5.732;2023-07-29T17:43:52;98793.41;;;25.33;100.00
15670;BME280;18524;45.190;5.732;2023-07-29T17:48:43;98774.09;;;25.24;100.00
15670;BME280;18524;45.190;5.732;2023-07-29T17:53:34;98774.09;;;25.24;100.00
15670;BME280;18524;45.190;5.732;2023-07-29T17:58:24;98789.06;;;25.02;100.00
15670;BME280;18524;45.190;5.732;2023-07-29T18:03:14;98796.75;;;24.98;100.00
15670;BME280;18524;45.190;5.732;2023-07-29T18:08:05;98801.66;;;25.01;100.00
15670;BME280;18524;45.190;5.732;2023-07-29T18:12:55;98797.94;;;25.02;100.00
15670;BME280;18524;45.190;5.732;2023-07-29T18:17:45;98829.34;;;24.95;100.00
15670;BME280;18524;45.190;5.732;2023-07-29T18:22:36;98913.31;;;25.02;100.00
15670;BME280;18524;45.190;5.732;2023-07-29T18:27:26;98943.69;;;24.96;100.00
15670;BME280;18524;45.190;5.732;2023-07-29T18:32:17;98897.97;;;24.84;100.00
15670;BME280;18524;45.190;5.732;2023-07-29T18:37:07;98911.16;;;24.86;100.00
15670;BME280;18524;45.190;5.732;2023-07-29T18:41:58;98898.16;;;24.65;100.00
15670;BME280;18524;45.190;5.732;2023-07-29T18:46:49;98918.91;;;24.51;100.00
15670;BME280;18524;45.190;5.732;2023-07-29T18:51:39;98905.50;;;24.51;100.00
15670;BME280;18524;45.190;5.732;2023-07-29T18:56:30;98873.81;;;24.41;100.00
15670;BME280;18524;45.190;5.732;2023-07-29T19:01:20;98877.44;;;24.28;100.00
15670;BME280;18524;45.190;5.732;2023-07-29T19:06:12;98926.16;;;24.12;100.00
15670;BME280;18524;45.190;5.732;2023-07-29T19:11:02;99001.41;;;24.17;100.00
15670;BME280;18524;45.190;5.732;2023-07-29T19:15:53;98983.19;;;24.26;100.00
15670;BME280;18524;45.190;5.732;2023-07-29T19:20:52;98961.38;;;24.22;100.00
15670;BME280;18524;45.190;5.732;2023-07-29T19:25:49;98983.63;;;24.23;100.00
15670;BME280;18524;45.190;5.732;2023-07-29T19:30:39;98987.94;;;24.30;100.00
15670;BME280;18524;45.190;5.732;2023-07-29T19:35:30;99015.78;;;24.29;100.00
15670;BME280;18524;45.190;5.732;2023-07-29T19:40:20;99016.16;;;24.33;100.00
15670;BME280;18524;45.190;5.732;2023-07-29T19:45:11;99004.06;;;24.17;100.00
15670;BME280;18524;45.190;5.732;2023-07-29T19:50:01;99035.41;;;24.17;100.00
15670;BME280;18524;45.190;5.732;2023-07-29T19:54:51;99050.63;;;24.23;100.00
15670;BME280;18524;45.190;5.732;2023-07-29T19:59:42;99060.63;;;23.96;100.00
15670;BME280;18524;45.190;5.732;2023-07-29T20:04:32;99048.47;;;24.00;100.00
15670;BME280;18524;45.190;5.732;2023-07-29T20:09:22;99066.41;;;23.93;100.00
15670;BME280;18524;45.190;5.732;2023-07-29T20:14:13;99090.31;;;23.94;100.00
15670;BME280;18524;45.190;5.732;2023-07-29T20:19:03;99099.00;;;23.90;100.00
15670;BME280;18524;45.190;5.732;2023-07-29T20:23:54;99119.41;;;23.84;100.00
15670;BME280;18524;45.190;5.732;2023-07-29T20:28:44;99108.69;;;23.78;100.00
15670;BME280;18524;45.190;5.732;2023-07-29T20:33:36;99112.84;;;23.60;100.00
15670;BME280;18524;45.190;5.732;2023-07-29T20:38:26;99121.28;;;23.51;100.00
15670;BME280;18524;45.190;5.732;2023-07-29T20:43:17;99106.25;;;23.56;100.00
15670;BME280;18524;45.190;5.732;2023-07-29T20:48:07;99115.94;;;23.57;100.00
15670;BME280;18524;45.190;5.732;2023-07-29T20:52:58;99106.44;;;23.35;100.00
15670;BME280;18524;45.190;5.732;2023-07-29T20:57:48;99113.22;;;23.37;100.00
15670;BME280;18524;45.190;5.732;2023-07-29T21:02:38;99121.88;;;23.26;100.00
15670;BME280;18524;45.190;5.732;2023-07-29T21:07:29;99114.91;;;23.19;100.00
15670;BME280;18524;45.190;5.732;2023-07-29T21:12:19;99109.75;;;23.17;100.00
15670;BME280;18524;45.190;5.732;2023-07-29T21:17:09;99119.22;;;23.13;100.00
15670;BME280;18524;45.190;5.732;2023-07-29T21:22:00;99123.94;;;23.18;100.00
15670;BME280;18524;45.190;5.732;2023-07-29T21:26:50;99131.16;;;23.17;100.00
15670;BME280;18524;45.190;5.732;2023-07-29T21:31:40;99126.00;;;23.16;100.00
15670;BME280;18524;45.190;5.732;2023-07-29T21:36:31;99127.03;;;23.21;100.00
15670;BME280;18524;45.190;5.732;2023-07-29T21:41:21;99134.84;;;23.23;100.00
15670;BME280;18524;45.190;5.732;2023-07-29T21:46:11;99139.81;;;23.32;100.00
15670;BME280;18524;45.190;5.732;2023-07-29T21:51:02;99141.03;;;23.36;100.00
15670;BME280;18524;45.190;5.732;2023-07-29T21:55:52;99129.50;;;23.29;100.00
15670;BME280;18524;45.190;5.732;2023-07-29T22:00:44;99136.50;;;23.24;100.00
15670;BME280;18524;45.190;5.732;2023-07-29T22:05:34;99127.66;;;23.23;100.00
15670;BME280;18524;45.190;5.732;2023-07-29T22:10:25;99135.28;;;23.13;100.00
15670;BME280;18524;45.190;5.732;2023-07-29T22:15:15;99135.69;;;23.10;100.00
15670;BME280;18524;45.190;5.732;2023-07-29T22:20:06;99138.16;;;23.05;100.00
15670;BME280;18524;45.190;5.732;2023-07-29T22:24:56;99140.38;;;23.01;100.00
15670;BME280;18524;45.190;5.732;2023-07-29T22:29:47;99138.53;;;22.95;100.00
15670;BME280;18524;45.190;5.732;2023-07-29T22:34:37;99136.88;;;22.94;100.00
15670;BME280;18524;45.190;5.732;2023-07-29T22:39:28;99137.91;;;22.87;100.00
15670;BME280;18524;45.190;5.732;2023-07-29T22:44:18;99135.03;;;22.88;100.00
15670;BME280;18524;45.190;5.732;2023-07-29T22:49:08;99136.06;;;22.87;100.00
15670;BME280;18524;45.190;5.732;2023-07-29T22:53:59;99139.94;;;22.85;100.00
15670;BME280;18524;45.190;5.732;2023-07-29T22:58:49;99132.34;;;22.88;100.00
15670;BME280;18524;45.190;5.732;2023-07-29T23:03:39;99132.75;;;22.85;100.00
15670;BME280;18524;45.190;5.732;2023-07-29T23:08:30;99143.44;;;22.85;100.00
15670;BME280;18524;45.190;5.732;2023-07-29T23:13:20;99152.72;;;22.89;100.00
15670;BME280;18524;45.190;5.732;2023-07-29T23:18:10;99150.19;;;22.74;100.00
15670;BME280;18524;45.190;5.732;2023-07-29T23:23:02;99152.44;;;22.71;100.00
15670;BME280;18524;45.190;5.732;2023-07-29T23:27:53;99152.19;;;22.66;100.00
15670;BME280;18524;45.190;5.732;2023-07-29T23:32:43;99151.16;;;22.67;100.00
15670;BME280;18524;45.190;5.732;2023-07-29T23:37:34;99150.13;;;22.61;100.00
15670;BME280;18524;45.190;5.732;2023-07-29T23:42:25;99154.66;;;22.61;100.00
15670;BME280;18524;45.190;5.732;2023-07-29T23:47:15;99155.28;;;22.63;100.00
15670;BME280;18524;45.190;5.732;2023-07-29T23:52:05;99147.25;;;22.63;100.00
15670;BME280;18524;45.190;5.732;2023-07-29T23:56:56;99140.22;;;22.42;100.00
